Time,TemperatureF,DewpointF,PressureIn,WindDirection,WindDirectionDegrees,WindSpeedMPH,WindSpeedGustMPH,Humidity,HourlyPrecipIn,Conditions,Clouds,dailyrainin,SoftwareType,DateUTC
2013-01-14 00:01:00,27.1,20.6,30.12,NNW,338,7.2,7.2,76,0.00,,---,0.00,VWS V14.00,2013-01-14 06:01:00,
2013-01-14 00:07:00,26.8,20.5,30.12,North,0,6.3,7.6,77,0.00,,---,0.00,VWS V14.00,2013-01-14 06:07:00,
2013-01-14 00:12:00,26.8,20.2,30.12,North,0,11.6,11.6,76,0.00,,---,0.00,VWS V14.00,2013-01-14 06:12:00,
2013-01-14 00:17:00,26.8,20.2,30.09,ENE,68,10.2,10.2,76,0.00,,---,0.00,VWS V14.00,2013-01-14 06:17:00,
2013-01-14 00:23:00,26.6,20.1,30.09,North,0,10.0,10.0,76,0.00,,---,0.00,VWS V14.00,2013-01-14 06:23:00,
2013-01-14 00:28:00,26.6,20.1,30.09,North,0,8.8,8.8,76,0.00,,---,0.00,VWS V14.00,2013-01-14 06:28:00,
2013-01-14 00:33:00,26.6,20.1,30.12,NNE,22,6.3,6.3,76,0.00,,---,0.00,VWS V14.00,2013-01-14 06:33:00,
2013-01-14 00:39:00,26.4,20.2,30.12,NNE,22,8.3,8.3,77,0.00,,---,0.00,VWS V14.00,2013-01-14 06:39:00,
2013-01-14 00:44:00,26.4,19.9,30.12,NNE,22,7.2,7.2,76,0.00,,---,0.00,VWS V14.00,2013-01-14 06:44:00,
2013-01-14 00:50:00,26.2,19.7,30.09,North,0,10.2,10.7,76,0.00,,---,0.00,VWS V14.00,2013-01-14 06:50:00,
2013-01-14 00:55:00,26.2,20.0,30.09,North,0,5.2,6.3,77,0.00,,---,0.00,VWS V14.00,2013-01-14 06:55:00,
2013-01-14 01:00:00,26.2,19.7,30.09,NNW,338,7.2,7.2,76,0.00,,---,0.00,VWS V14.00,2013-01-14 07:00:00,
2013-01-14 01:05:00,26.1,19.5,30.12,North,0,10.5,10.5,76,0.00,,---,0.00,VWS V14.00,2013-01-14 07:05:00,
2013-01-14 01:10:00,26.1,19.5,30.12,North,0,6.3,7.4,76,0.00,,---,0.00,VWS V14.00,2013-01-14 07:10:00,
2013-01-14 01:15:00,26.1,19.5,30.12,North,0,6.3,6.3,76,0.00,,---,0.00,VWS V14.00,2013-01-14 07:15:00,
2013-01-14 01:21:00,26.1,19.2,30.12,North,0,11.6,11.6,75,0.00,,---,0.00,VWS V14.00,2013-01-14 07:21:00,
2013-01-14 01:26:00,26.1,19.2,30.12,North,0,10.5,10.5,75,0.00,,---,0.00,VWS V14.00,2013-01-14 07:26:00,
2013-01-14 01:31:00,25.9,18.8,30.12,NNE,22,13.0,13.0,74,0.00,,---,0.00,VWS V14.00,2013-01-14 07:31:00,
2013-01-14 01:37:00,25.9,18.4,30.12,North,0,6.3,7.6,73,0.00,,---,0.00,VWS V14.00,2013-01-14 07:37:00,
2013-01-14 01:42:00,25.9,18.8,30.12,North,0,8.3,9.4,74,0.00,,---,0.00,VWS V14.00,2013-01-14 07:42:00,
2013-01-14 01:47:00,25.7,19.2,30.12,NNW,338,10.5,10.5,76,0.00,,---,0.00,VWS V14.00,2013-01-14 07:47:00,
2013-01-14 01:52:00,25.7,19.5,30.12,North,0,7.2,7.2,77,0.00,,---,0.00,VWS V14.00,2013-01-14 07:52:00,
2013-01-14 01:58:00,25.5,19.3,30.12,North,0,11.1,11.1,77,0.00,,---,0.00,VWS V14.00,2013-01-14 07:58:00,
2013-01-14 02:04:00,25.3,19.1,30.12,North,0,8.3,8.3,77,0.00,,---,0.00,VWS V14.00,2013-01-14 08:04:00,
2013-01-14 02:09:00,25.3,19.5,30.12,ENE,68,4.4,4.4,78,0.00,,---,0.00,VWS V14.00,2013-01-14 08:09:00,
2013-01-14 02:14:00,25.3,19.5,30.12,North,0,8.6,8.6,78,0.00,,---,0.00,VWS V14.00,2013-01-14 08:14:00,
2013-01-14 02:19:00,25.2,19.3,30.15,North,0,7.2,7.6,78,0.00,,---,0.00,VWS V14.00,2013-01-14 08:19:00,
2013-01-14 02:24:00,25.2,19.3,30.15,North,0,8.8,8.8,78,0.00,,---,0.00,VWS V14.00,2013-01-14 08:24:00,
2013-01-14 02:30:00,25.2,19.3,30.15,NNE,22,9.1,9.1,78,0.00,,---,0.00,VWS V14.00,2013-01-14 08:30:00,
2013-01-14 02:35:00,25.2,19.3,30.15,NNE,22,6.0,6.5,78,0.00,,---,0.00,VWS V14.00,2013-01-14 08:35:00,
2013-01-14 02:40:00,25.0,19.1,30.15,North,0,5.5,6.0,78,0.00,,---,0.00,VWS V14.00,2013-01-14 08:40:00,
2013-01-14 02:45:00,25.0,18.8,30.15,North,0,5.5,5.5,77,0.00,,---,0.00,VWS V14.00,2013-01-14 08:45:00,
2013-01-14 02:50:00,25.0,18.8,30.15,NNE,22,11.6,11.6,77,0.00,,---,0.00,VWS V14.00,2013-01-14 08:50:00,
2013-01-14 02:56:00,25.0,18.8,30.15,North,0,7.2,7.6,77,0.00,,---,0.00,VWS V14.00,2013-01-14 08:56:00,
2013-01-14 03:02:00,25.0,18.5,30.15,North,0,9.1,9.1,76,0.00,,---,0.00,VWS V14.00,2013-01-14 09:02:00,
2013-01-14 03:08:00,24.8,18.3,30.15,NNW,338,6.3,8.5,76,0.00,,---,0.00,VWS V14.00,2013-01-14 09:08:00,
2013-01-14 03:13:00,24.8,18.6,30.15,NNW,338,7.2,7.2,77,0.00,,---,0.00,VWS V14.00,2013-01-14 09:13:00,
2013-01-14 03:18:00,24.8,18.6,30.15,North,0,8.3,8.3,77,0.00,,---,0.00,VWS V14.00,2013-01-14 09:18:00,
2013-01-14 03:23:00,24.6,18.5,30.15,NNW,338,7.2,7.2,77,0.00,,---,0.00,VWS V14.00,2013-01-14 09:23:00,
2013-01-14 03:29:00,24.6,18.5,30.15,East,90,5.8,5.8,77,0.00,,---,0.00,VWS V14.00,2013-01-14 09:29:00,
2013-01-14 03:34:00,24.6,18.5,30.15,North,0,7.7,7.7,77,0.00,,---,0.00,VWS V14.00,2013-01-14 09:34:00,
2013-01-14 03:40:00,24.4,18.0,30.15,NNE,22,6.9,6.9,76,0.00,,---,0.00,VWS V14.00,2013-01-14 09:40:00,
2013-01-14 03:46:00,24.4,18.0,30.12,NW,315,8.3,8.3,76,0.00,,---,0.00,VWS V14.00,2013-01-14 09:46:00,
2013-01-14 03:52:00,24.4,18.0,30.12,NNW,338,6.6,8.1,76,0.00,,---,0.00,VWS V14.00,2013-01-14 09:52:00,
2013-01-14 03:57:00,24.4,18.0,30.12,North,0,6.3,6.3,76,0.00,,---,0.00,VWS V14.00,2013-01-14 09:57:00,
2013-01-14 04:02:00,24.3,18.1,30.15,NNE,22,8.8,8.8,77,0.00,,---,0.00,VWS V14.00,2013-01-14 10:02:00,
2013-01-14 04:07:00,24.3,17.8,30.15,NNW,338,4.1,6.5,76,0.00,,---,0.00,VWS V14.00,2013-01-14 10:07:00,
2013-01-14 04:12:00,24.3,17.8,30.15,NNW,338,6.3,7.4,76,0.00,,---,0.00,VWS V14.00,2013-01-14 10:12:00,
2013-01-14 04:18:00,24.3,17.5,30.15,NNW,338,6.0,6.5,75,0.00,,---,0.00,VWS V14.00,2013-01-14 10:18:00,
2013-01-14 04:23:00,24.3,17.5,30.15,South,180,6.3,8.1,75,0.00,,---,0.00,VWS V14.00,2013-01-14 10:23:00,
2013-01-14 04:28:00,24.3,17.5,30.15,NE,45,8.6,8.6,75,0.00,,---,0.00,VWS V14.00,2013-01-14 10:28:00,
2013-01-14 04:33:00,24.1,17.0,30.15,NNW,338,4.4,6.0,74,0.00,,---,0.00,VWS V14.00,2013-01-14 10:33:00,
2013-01-14 04:38:00,24.1,16.4,30.15,WSW,248,6.3,6.3,72,0.00,,---,0.00,VWS V14.00,2013-01-14 10:38:00,
2013-01-14 04:44:00,24.1,16.0,30.15,North,0,8.6,8.6,71,0.00,,---,0.00,VWS V14.00,2013-01-14 10:44:00,
2013-01-14 04:49:00,23.9,15.6,30.12,NNW,338,8.0,8.0,70,0.00,,---,0.00,VWS V14.00,2013-01-14 10:49:00,
2013-01-14 04:54:00,24.1,15.4,30.12,NNW,338,5.5,5.8,69,0.00,,---,0.00,VWS V14.00,2013-01-14 10:54:00,
2013-01-14 04:59:00,23.9,15.6,30.12,NNW,338,7.7,7.7,70,0.00,,---,0.00,VWS V14.00,2013-01-14 10:59:00,
2013-01-14 05:05:00,23.9,14.9,30.15,NNW,338,5.8,5.8,68,0.00,,---,0.00,VWS V14.00,2013-01-14 11:05:00,
2013-01-14 05:10:00,23.7,14.7,30.15,North,0,11.1,11.1,68,0.00,,---,0.00,VWS V14.00,2013-01-14 11:10:00,
2013-01-14 05:15:00,23.7,14.7,30.15,SE,135,6.0,6.5,68,0.00,,---,0.00,VWS V14.00,2013-01-14 11:15:00,
2013-01-14 05:21:00,23.7,14.4,30.12,NNW,338,7.7,7.7,67,0.00,,---,0.00,VWS V14.00,2013-01-14 11:21:00,
2013-01-14 05:26:00,23.5,14.2,30.12,North,0,11.1,11.1,67,0.00,,---,0.00,VWS V14.00,2013-01-14 11:26:00,
2013-01-14 05:31:00,23.5,13.2,30.12,East,90,11.1,11.1,64,0.00,,---,0.00,VWS V14.00,2013-01-14 11:31:00,
2013-01-14 05:36:00,23.5,13.5,30.12,South,180,4.9,4.9,65,0.00,,---,0.00,VWS V14.00,2013-01-14 11:36:00,
2013-01-14 05:42:00,23.5,13.2,30.12,NNW,338,6.3,6.3,64,0.00,,---,0.00,VWS V14.00,2013-01-14 11:42:00,
2013-01-14 05:47:00,23.5,13.2,30.15,NNW,338,10.0,11.0,64,0.00,,---,0.00,VWS V14.00,2013-01-14 11:47:00,
2013-01-14 05:52:00,23.4,13.0,30.15,NNE,22,6.3,9.6,64,0.00,,---,0.00,VWS V14.00,2013-01-14 11:52:00,
2013-01-14 05:57:00,23.4,13.0,30.15,NNW,338,6.9,7.4,64,0.00,,---,0.00,VWS V14.00,2013-01-14 11:57:00,
2013-01-14 06:02:00,23.4,13.4,30.12,North,0,10.5,10.5,65,0.00,,---,0.00,VWS V14.00,2013-01-14 12:02:00,
2013-01-14 06:07:00,23.2,13.2,30.12,NW,315,6.0,6.5,65,0.00,,---,0.00,VWS V14.00,2013-01-14 12:07:00,
2013-01-14 06:13:00,23.2,13.5,30.12,ENE,68,7.2,7.2,66,0.00,,---,0.00,VWS V14.00,2013-01-14 12:13:00,
2013-01-14 06:18:00,23.0,13.7,30.12,ENE,68,13.0,13.0,67,0.00,,---,0.00,VWS V14.00,2013-01-14 12:18:00,
2013-01-14 06:23:00,23.2,13.9,30.12,NNW,338,8.6,8.6,67,0.00,,---,0.00,VWS V14.00,2013-01-14 12:23:00,
2013-01-14 06:28:00,23.2,13.9,30.12,North,0,10.5,10.5,67,0.00,,---,0.00,VWS V14.00,2013-01-14 12:28:00,
2013-01-14 06:34:00,23.2,14.2,30.12,WSW,248,6.0,6.3,68,0.00,,---,0.00,VWS V14.00,2013-01-14 12:34:00,
2013-01-14 06:39:00,23.4,14.4,30.12,NW,315,8.3,8.3,68,0.00,,---,0.00,VWS V14.00,2013-01-14 12:39:00,
2013-01-14 06:44:00,23.2,14.2,30.12,NW,315,8.6,8.6,68,0.00,,---,0.00,VWS V14.00,2013-01-14 12:44:00,
2013-01-14 06:49:00,23.2,14.2,30.12,NW,315,9.7,9.7,68,0.00,,---,0.00,VWS V14.00,2013-01-14 12:49:00,
2013-01-14 06:54:00,23.2,14.2,30.12,NW,315,8.6,8.6,68,0.00,,---,0.00,VWS V14.00,2013-01-14 12:54:00,
2013-01-14 06:59:00,23.4,14.0,30.12,NNW,338,12.2,12.2,67,0.00,,---,0.00,VWS V14.00,2013-01-14 12:59:00,
2013-01-14 07:04:00,23.4,14.0,30.12,NW,315,5.2,5.4,67,0.00,,---,0.00,VWS V14.00,2013-01-14 13:04:00,
2013-01-14 07:09:00,23.4,14.0,30.12,NNW,338,5.5,5.5,67,0.00,,---,0.00,VWS V14.00,2013-01-14 13:09:00,
2013-01-14 07:14:00,23.4,13.7,30.12,NNW,338,11.6,11.6,66,0.00,,---,0.00,VWS V14.00,2013-01-14 13:14:00,
2013-01-14 07:19:00,23.4,13.7,30.12,NW,315,5.8,8.5,66,0.00,,---,0.00,VWS V14.00,2013-01-14 13:19:00,
2013-01-14 07:24:00,23.4,13.4,30.12,NNW,338,6.3,7.8,65,0.00,,---,0.00,VWS V14.00,2013-01-14 13:24:00,
2013-01-14 07:29:00,23.4,13.7,30.12,NW,315,8.3,8.3,66,0.00,,---,0.00,VWS V14.00,2013-01-14 13:29:00,
2013-01-14 07:34:00,23.4,13.7,30.15,NNE,22,10.5,10.5,66,0.00,,---,0.00,VWS V14.00,2013-01-14 13:34:00,
2013-01-14 07:39:00,23.4,13.4,30.15,SSE,158,9.1,13.0,65,0.00,,---,0.00,VWS V14.00,2013-01-14 13:39:00,
2013-01-14 07:44:00,23.4,13.4,30.15,North,0,16.7,16.7,65,0.00,,---,0.00,VWS V14.00,2013-01-14 13:44:00,
2013-01-14 07:50:00,23.4,13.7,30.15,NNE,22,10.5,10.5,66,0.00,,---,0.00,VWS V14.00,2013-01-14 13:50:00,
2013-01-14 07:55:00,23.4,13.7,30.15,North,0,4.6,4.6,66,0.00,,---,0.00,VWS V14.00,2013-01-14 13:55:00,
2013-01-14 08:00:00,23.5,13.5,30.15,North,0,7.7,9.6,65,0.00,,---,0.00,VWS V14.00,2013-01-14 14:00:00,
2013-01-14 08:06:00,23.7,13.7,30.15,SE,135,6.9,8.7,65,0.00,,---,0.00,VWS V14.00,2013-01-14 14:06:00,
2013-01-14 08:11:00,23.9,13.9,30.15,North,0,6.3,8.5,65,0.00,,---,0.00,VWS V14.00,2013-01-14 14:11:00,
2013-01-14 08:17:00,24.1,14.0,30.18,NNE,22,8.0,8.7,65,0.00,,---,0.00,VWS V14.00,2013-01-14 14:17:00,
2013-01-14 08:22:00,24.1,13.3,30.18,North,0,5.8,5.8,63,0.00,,---,0.00,VWS V14.00,2013-01-14 14:22:00,
2013-01-14 08:28:00,24.3,13.1,30.18,NNE,22,16.1,16.1,62,0.00,,---,0.00,VWS V14.00,2013-01-14 14:28:00,
2013-01-14 08:34:00,24.4,13.3,30.18,WNW,292,7.2,8.7,62,0.00,,---,0.00,VWS V14.00,2013-01-14 14:34:00,
2013-01-14 08:39:00,24.4,13.3,30.18,North,0,4.6,12.1,62,0.00,,---,0.00,VWS V14.00,2013-01-14 14:39:00,
2013-01-14 08:44:00,24.4,13.3,30.18,North,0,7.7,7.7,62,0.00,,---,0.00,VWS V14.00,2013-01-14 14:44:00,
2013-01-14 08:49:00,24.8,13.3,30.21,WNW,292,10.2,10.2,61,0.00,,---,0.00,VWS V14.00,2013-01-14 14:49:00,
2013-01-14 08:55:00,25.3,14.9,30.21,NNE,22,6.0,10.3,64,0.00,,---,0.00,VWS V14.00,2013-01-14 14:55:00,
2013-01-14 09:00:00,25.3,14.2,30.21,North,0,6.3,6.3,62,0.00,,---,0.00,VWS V14.00,2013-01-14 15:00:00,
2013-01-14 09:05:00,25.3,13.4,30.21,North,0,9.4,13.2,60,0.00,,---,0.00,VWS V14.00,2013-01-14 15:05:00,
2013-01-14 09:10:00,25.3,13.8,30.21,NNW,338,3.5,6.3,61,0.00,,---,0.00,VWS V14.00,2013-01-14 15:10:00,
2013-01-14 09:16:00,25.3,13.4,30.21,WNW,292,4.4,6.3,60,0.00,,---,0.00,VWS V14.00,2013-01-14 15:16:00,
2013-01-14 09:21:00,25.3,13.0,30.21,NNW,338,6.3,8.7,59,0.00,,---,0.00,VWS V14.00,2013-01-14 15:21:00,
2013-01-14 09:26:00,25.5,13.2,30.21,North,0,8.6,8.6,59,0.00,,---,0.00,VWS V14.00,2013-01-14 15:26:00,
2013-01-14 09:31:00,25.7,14.1,30.21,North,0,5.8,7.4,61,0.00,,---,0.00,VWS V14.00,2013-01-14 15:31:00,
2013-01-14 09:36:00,25.9,13.9,30.21,North,0,14.7,14.7,60,0.00,,---,0.00,VWS V14.00,2013-01-14 15:36:00,
2013-01-14 09:42:00,26.1,13.3,30.21,NNW,338,8.3,8.5,58,0.00,,---,0.00,VWS V14.00,2013-01-14 15:42:00,
2013-01-14 09:48:00,26.1,13.3,30.24,NE,45,7.2,7.2,58,0.00,,---,0.00,VWS V14.00,2013-01-14 15:48:00,
2013-01-14 09:53:00,26.1,13.3,30.24,NNE,22,4.9,11.0,58,0.00,,---,0.00,VWS V14.00,2013-01-14 15:53:00,
2013-01-14 09:58:00,26.1,13.3,30.24,North,0,7.7,7.7,58,0.00,,---,0.00,VWS V14.00,2013-01-14 15:58:00,
2013-01-14 10:03:00,26.1,13.3,30.18,North,0,13.6,13.6,58,0.00,,---,0.00,VWS V14.00,2013-01-14 16:03:00,
2013-01-14 10:08:00,26.1,13.3,30.18,North,0,10.8,10.8,58,0.00,,---,0.00,VWS V14.00,2013-01-14 16:08:00,
2013-01-14 10:13:00,26.1,13.3,30.18,NNE,22,10.5,11.0,58,0.00,,---,0.00,VWS V14.00,2013-01-14 16:13:00,
2013-01-14 10:19:00,26.2,13.5,30.21,North,0,8.8,8.8,58,0.00,,---,0.00,VWS V14.00,2013-01-14 16:19:00,
2013-01-14 10:24:00,26.4,14.1,30.21,NE,45,10.8,15.7,59,0.00,,---,0.00,VWS V14.00,2013-01-14 16:24:00,
2013-01-14 10:29:00,26.4,14.1,30.21,North,0,13.3,13.3,59,0.00,,---,0.00,VWS V14.00,2013-01-14 16:29:00,
2013-01-14 10:35:00,26.1,13.3,30.21,North,0,14.4,14.4,58,0.00,,---,0.00,VWS V14.00,2013-01-14 16:35:00,
2013-01-14 10:40:00,26.1,13.3,30.21,North,0,11.9,12.8,58,0.00,,---,0.00,VWS V14.00,2013-01-14 16:40:00,
2013-01-14 10:45:00,25.9,13.1,30.21,North,0,11.1,11.2,58,0.00,,---,0.00,VWS V14.00,2013-01-14 16:45:00,
2013-01-14 10:51:00,25.7,13.0,30.21,NNW,338,18.3,18.3,58,0.00,,---,0.00,VWS V14.00,2013-01-14 16:51:00,
2013-01-14 10:56:00,25.9,13.5,30.21,SE,135,14.1,14.1,59,0.00,,---,0.00,VWS V14.00,2013-01-14 16:56:00,
2013-01-14 11:01:00,25.9,13.5,30.21,NNW,338,11.6,11.6,59,0.00,,---,0.00,VWS V14.00,2013-01-14 17:01:00,
2013-01-14 11:06:00,26.1,13.3,30.21,NNE,22,11.9,11.9,58,0.00,,---,0.00,VWS V14.00,2013-01-14 17:06:00,
2013-01-14 11:11:00,26.1,13.7,30.21,North,0,16.7,16.7,59,0.00,,---,0.00,VWS V14.00,2013-01-14 17:11:00,
2013-01-14 11:16:00,26.1,12.9,30.21,North,0,11.1,11.1,57,0.00,,---,0.00,VWS V14.00,2013-01-14 17:16:00,
2013-01-14 11:22:00,26.1,13.3,30.24,NE,45,8.0,9.6,58,0.00,,---,0.00,VWS V14.00,2013-01-14 17:22:00,
2013-01-14 11:27:00,26.1,12.9,30.24,NNW,338,8.8,8.8,57,0.00,,---,0.00,VWS V14.00,2013-01-14 17:27:00,
2013-01-14 11:32:00,26.2,13.9,30.24,NW,315,11.6,11.6,59,0.00,,---,0.00,VWS V14.00,2013-01-14 17:32:00,
2013-01-14 11:37:00,26.2,13.1,30.24,North,0,11.9,11.9,57,0.00,,---,0.00,VWS V14.00,2013-01-14 17:37:00,
2013-01-14 11:43:00,26.6,14.2,30.24,North,0,8.0,8.0,59,0.00,,---,0.00,VWS V14.00,2013-01-14 17:43:00,
2013-01-14 11:48:00,26.6,13.8,30.21,NW,315,10.8,10.8,58,0.00,,---,0.00,VWS V14.00,2013-01-14 17:48:00,
2013-01-14 11:53:00,26.6,13.8,30.21,NNE,22,10.0,10.0,58,0.00,,---,0.00,VWS V14.00,2013-01-14 17:53:00,
2013-01-14 11:59:00,27.0,14.2,30.21,NNE,22,11.9,11.9,58,0.00,,---,0.00,VWS V14.00,2013-01-14 17:59:00,
2013-01-14 12:04:00,27.1,14.3,30.21,NNW,338,10.2,11.0,58,0.00,,---,0.00,VWS V14.00,2013-01-14 18:04:00,
2013-01-14 12:10:00,27.3,14.5,30.21,NNE,22,8.6,8.6,58,0.00,,---,0.00,VWS V14.00,2013-01-14 18:10:00,
2013-01-14 12:15:00,27.1,13.9,30.21,North,0,7.7,7.7,57,0.00,,---,0.00,VWS V14.00,2013-01-14 18:15:00,
2013-01-14 12:20:00,27.1,13.9,30.18,North,0,6.3,6.3,57,0.00,,---,0.00,VWS V14.00,2013-01-14 18:20:00,
2013-01-14 12:26:00,27.1,14.3,30.18,ESE,112,4.4,4.7,58,0.00,,---,0.00,VWS V14.00,2013-01-14 18:26:00,
2013-01-14 12:32:00,27.1,14.3,30.18,North,0,4.9,5.8,58,0.00,,---,0.00,VWS V14.00,2013-01-14 18:32:00,
2013-01-14 12:37:00,27.3,14.5,30.18,West,270,7.7,7.7,58,0.00,,---,0.00,VWS V14.00,2013-01-14 18:37:00,
2013-01-14 12:42:00,27.7,15.2,30.18,NW,315,6.0,6.0,59,0.00,,---,0.00,VWS V14.00,2013-01-14 18:42:00,
2013-01-14 12:47:00,27.7,14.9,30.15,WNW,292,5.5,5.8,58,0.00,,---,0.00,VWS V14.00,2013-01-14 18:47:00,
2013-01-14 12:53:00,28.0,14.8,30.15,NE,45,7.7,7.7,57,0.00,,---,0.00,VWS V14.00,2013-01-14 18:53:00,
2013-01-14 12:58:00,28.2,14.6,30.15,NW,315,5.2,6.0,56,0.00,,---,0.00,VWS V14.00,2013-01-14 18:58:00,
2013-01-14 13:03:00,28.2,14.6,30.15,North,0,8.6,8.6,56,0.00,,---,0.00,VWS V14.00,2013-01-14 19:03:00,
2013-01-14 13:08:00,28.2,14.6,30.15,NE,45,4.4,5.6,56,0.00,,---,0.00,VWS V14.00,2013-01-14 19:08:00,
2013-01-14 13:14:00,28.4,14.7,30.15,ESE,112,9.1,11.0,56,0.00,,---,0.00,VWS V14.00,2013-01-14 19:14:00,
2013-01-14 13:19:00,28.4,14.7,30.12,WNW,292,8.0,8.0,56,0.00,,---,0.00,VWS V14.00,2013-01-14 19:19:00,
2013-01-14 13:24:00,28.4,15.1,30.12,NNW,338,7.2,7.2,57,0.00,,---,0.00,VWS V14.00,2013-01-14 19:24:00,
2013-01-14 13:30:00,28.6,14.9,30.12,North,0,10.2,10.2,56,0.00,,---,0.00,VWS V14.00,2013-01-14 19:30:00,
2013-01-14 13:35:00,28.8,15.1,30.15,NNE,22,11.6,11.6,56,0.00,,---,0.00,VWS V14.00,2013-01-14 19:35:00,
2013-01-14 13:40:00,28.9,14.8,30.15,North,0,11.6,11.6,55,0.00,,---,0.00,VWS V14.00,2013-01-14 19:40:00,
2013-01-14 13:45:00,29.1,15.0,30.15,NNW,338,7.2,8.5,55,0.00,,---,0.00,VWS V14.00,2013-01-14 19:45:00,
2013-01-14 13:50:00,29.5,15.7,30.12,NNW,338,9.1,9.1,56,0.00,,---,0.00,VWS V14.00,2013-01-14 19:50:00,
2013-01-14 13:56:00,29.8,15.7,30.12,WNW,292,2.4,7.6,55,0.00,,---,0.00,VWS V14.00,2013-01-14 19:56:00,
2013-01-14 14:02:00,29.7,15.1,30.12,North,0,11.1,11.1,54,0.00,,---,0.00,VWS V14.00,2013-01-14 20:02:00,
2013-01-14 14:07:00,29.7,15.1,30.12,WSW,248,8.6,8.6,54,0.00,,---,0.00,VWS V14.00,2013-01-14 20:07:00,
2013-01-14 14:12:00,30.0,15.4,30.12,North,0,7.7,7.7,54,0.00,,---,0.00,VWS V14.00,2013-01-14 20:12:00,
2013-01-14 14:18:00,30.2,16.0,30.12,North,0,11.6,11.6,55,0.00,,---,0.00,VWS V14.00,2013-01-14 20:18:00,
2013-01-14 14:24:00,30.2,15.1,30.12,NNW,338,11.1,11.1,53,0.00,,---,0.00,VWS V14.00,2013-01-14 20:24:00,
2013-01-14 14:29:00,30.2,14.7,30.12,NNE,22,6.9,10.5,52,0.00,,---,0.00,VWS V14.00,2013-01-14 20:29:00,
2013-01-14 14:34:00,30.6,15.5,30.12,NNW,338,11.1,11.1,53,0.00,,---,0.00,VWS V14.00,2013-01-14 20:34:00,
2013-01-14 14:39:00,30.7,15.6,30.12,North,0,10.8,11.0,53,0.00,,---,0.00,VWS V14.00,2013-01-14 20:39:00,
2013-01-14 14:44:00,30.7,15.6,30.12,NNE,22,17.2,17.2,53,0.00,,---,0.00,VWS V14.00,2013-01-14 20:44:00,
2013-01-14 14:50:00,30.4,14.9,30.12,North,0,16.1,16.1,52,0.00,,---,0.00,VWS V14.00,2013-01-14 20:50:00,
2013-01-14 14:55:00,30.6,15.5,30.12,North,0,14.1,14.1,53,0.00,,---,0.00,VWS V14.00,2013-01-14 20:55:00,
2013-01-14 15:00:00,30.4,15.7,30.12,North,0,10.2,10.2,54,0.00,,---,0.00,VWS V14.00,2013-01-14 21:00:00,
2013-01-14 15:06:00,30.4,15.3,30.15,North,0,16.7,16.7,53,0.00,,---,0.00,VWS V14.00,2013-01-14 21:06:00,
2013-01-14 15:11:00,30.2,15.1,30.15,North,0,16.9,16.9,53,0.00,,---,0.00,VWS V14.00,2013-01-14 21:11:00,
2013-01-14 15:16:00,30.6,15.9,30.12,NNW,338,8.8,8.8,54,0.00,,---,0.00,VWS V14.00,2013-01-14 21:16:00,
2013-01-14 15:21:00,30.6,15.5,30.12,North,0,10.5,10.5,53,0.00,,---,0.00,VWS V14.00,2013-01-14 21:21:00,
2013-01-14 15:27:00,30.6,15.5,30.12,North,0,8.6,8.6,53,0.00,,---,0.00,VWS V14.00,2013-01-14 21:27:00,
2013-01-14 15:32:00,30.4,14.9,30.15,East,90,11.1,11.1,52,0.00,,---,0.00,VWS V14.00,2013-01-14 21:32:00,
2013-01-14 15:37:00,30.4,14.9,30.15,NW,315,6.0,6.0,52,0.00,,---,0.00,VWS V14.00,2013-01-14 21:37:00,
2013-01-14 15:43:00,30.4,14.9,30.15,North,0,4.4,7.8,52,0.00,,---,0.00,VWS V14.00,2013-01-14 21:43:00,
2013-01-14 15:48:00,30.4,14.4,30.15,ENE,68,8.8,8.8,51,0.00,,---,0.00,VWS V14.00,2013-01-14 21:48:00,
2013-01-14 15:53:00,30.4,14.9,30.15,NW,315,4.9,8.1,52,0.00,,---,0.00,VWS V14.00,2013-01-14 21:53:00,
2013-01-14 15:58:00,30.2,14.7,30.15,WSW,248,10.2,10.2,52,0.00,,---,0.00,VWS V14.00,2013-01-14 21:58:00,
2013-01-14 16:03:00,30.4,14.9,30.15,North,0,9.1,9.1,52,0.00,,---,0.00,VWS V14.00,2013-01-14 22:03:00,
2013-01-14 16:09:00,30.6,15.0,30.15,North,0,4.1,10.7,52,0.00,,---,0.00,VWS V14.00,2013-01-14 22:09:00,
2013-01-14 16:14:00,30.4,14.9,30.15,NNE,22,11.1,12.5,52,0.00,,---,0.00,VWS V14.00,2013-01-14 22:14:00,
2013-01-14 16:19:00,30.2,14.7,30.12,North,0,9.4,10.5,52,0.00,,---,0.00,VWS V14.00,2013-01-14 22:19:00,
2013-01-14 16:24:00,30.0,14.1,30.12,SSW,202,4.9,6.5,51,0.00,,---,0.00,VWS V14.00,2013-01-14 22:24:00,
2013-01-14 16:29:00,30.0,14.5,30.12,North,0,6.3,6.3,52,0.00,,---,0.00,VWS V14.00,2013-01-14 22:29:00,
2013-01-14 16:35:00,29.8,14.4,30.12,NW,315,6.3,6.3,52,0.00,,---,0.00,VWS V14.00,2013-01-14 22:35:00,
2013-01-14 16:41:00,29.8,14.4,30.12,East,90,13.0,13.0,52,0.00,,---,0.00,VWS V14.00,2013-01-14 22:41:00,
2013-01-14 16:46:00,29.8,14.4,30.12,North,0,4.9,4.9,52,0.00,,---,0.00,VWS V14.00,2013-01-14 22:46:00,
2013-01-14 16:52:00,29.8,13.9,30.15,SSW,202,8.6,8.6,51,0.00,,---,0.00,VWS V14.00,2013-01-14 22:52:00,
2013-01-14 16:58:00,29.7,13.8,30.15,North,0,5.2,6.5,51,0.00,,---,0.00,VWS V14.00,2013-01-14 22:58:00,
2013-01-14 17:03:00,29.7,13.8,30.15,NNW,338,4.6,6.0,51,0.00,,---,0.00,VWS V14.00,2013-01-14 23:03:00,
2013-01-14 17:08:00,29.7,13.8,30.15,NNW,338,5.5,5.5,51,0.00,,---,0.00,VWS V14.00,2013-01-14 23:08:00,
2013-01-14 17:13:00,29.5,13.6,30.15,North,0,5.5,5.5,51,0.00,,---,0.00,VWS V14.00,2013-01-14 23:13:00,
2013-01-14 17:19:00,29.5,13.6,30.12,West,270,7.2,7.6,51,0.00,,---,0.00,VWS V14.00,2013-01-14 23:19:00,
2013-01-14 17:24:00,29.5,13.1,30.12,West,270,6.9,8.1,50,0.00,,---,0.00,VWS V14.00,2013-01-14 23:24:00,
2013-01-14 17:29:00,29.3,13.4,30.12,North,0,11.1,11.1,51,0.00,,---,0.00,VWS V14.00,2013-01-14 23:29:00,
2013-01-14 17:34:00,29.3,13.4,30.12,North,0,5.5,7.6,51,0.00,,---,0.00,VWS V14.00,2013-01-14 23:34:00,
2013-01-14 17:41:00,29.1,13.3,30.12,NNW,338,4.4,4.4,51,0.00,,---,0.00,VWS V14.00,2013-01-14 23:41:00,
2013-01-14 17:46:00,28.9,13.1,30.12,WNW,292,6.3,6.3,51,0.00,,---,0.00,VWS V14.00,2013-01-14 23:46:00,
2013-01-14 17:52:00,28.9,13.5,30.12,NNE,22,5.2,5.2,52,0.00,,---,0.00,VWS V14.00,2013-01-14 23:52:00,
2013-01-14 17:57:00,28.8,13.4,30.12,NNE,22,6.3,7.8,52,0.00,,---,0.00,VWS V14.00,2013-01-14 23:57:00,
2013-01-14 18:03:00,28.8,13.4,30.12,NNE,22,7.2,7.2,52,0.00,,---,0.00,VWS V14.00,2013-01-15 00:03:00,
2013-01-14 18:08:00,28.6,13.2,30.12,NNW,338,7.2,7.2,52,0.00,,---,0.00,VWS V14.00,2013-01-15 00:08:00,
2013-01-14 18:13:00,28.6,13.6,30.12,NNW,338,8.3,8.3,53,0.00,,---,0.00,VWS V14.00,2013-01-15 00:13:00,
2013-01-14 18:19:00,28.4,13.5,30.15,NW,315,6.0,7.8,53,0.00,,---,0.00,VWS V14.00,2013-01-15 00:19:00,
2013-01-14 18:24:00,28.4,13.5,30.15,NNW,338,3.5,4.3,53,0.00,,---,0.00,VWS V14.00,2013-01-15 00:24:00,
2013-01-14 18:29:00,28.2,13.7,30.15,NE,45,7.2,7.6,54,0.00,,---,0.00,VWS V14.00,2013-01-15 00:29:00,
2013-01-14 18:34:00,28.0,13.6,30.12,North,0,6.3,6.3,54,0.00,,---,0.00,VWS V14.00,2013-01-15 00:34:00,
2013-01-14 18:40:00,28.0,13.6,30.12,NNW,338,10.0,10.0,54,0.00,,---,0.00,VWS V14.00,2013-01-15 00:40:00,
2013-01-14 18:45:00,27.9,13.8,30.12,NNW,338,4.9,4.9,55,0.00,,---,0.00,VWS V14.00,2013-01-15 00:45:00,
2013-01-14 18:50:00,27.9,13.8,30.12,North,0,6.3,6.3,55,0.00,,---,0.00,VWS V14.00,2013-01-15 00:50:00,
2013-01-14 18:56:00,27.9,13.8,30.12,NW,315,4.1,4.1,55,0.00,,---,0.00,VWS V14.00,2013-01-15 00:56:00,
2013-01-14 19:01:00,27.7,14.0,30.12,North,0,5.5,5.5,56,0.00,,---,0.00,VWS V14.00,2013-01-15 01:01:00,
2013-01-14 19:07:00,27.5,13.9,30.12,North,0,7.2,7.2,56,0.00,,---,0.00,VWS V14.00,2013-01-15 01:07:00,
2013-01-14 19:12:00,27.5,14.3,30.12,NW,315,7.2,7.2,57,0.00,,---,0.00,VWS V14.00,2013-01-15 01:12:00,
2013-01-14 19:18:00,27.5,14.3,30.12,North,0,5.8,5.8,57,0.00,,---,0.00,VWS V14.00,2013-01-15 01:18:00,
2013-01-14 19:23:00,27.3,14.1,30.12,North,0,4.6,4.6,57,0.00,,---,0.00,VWS V14.00,2013-01-15 01:23:00,
2013-01-14 19:28:00,27.3,14.1,30.12,North,0,10.5,10.5,57,0.00,,---,0.00,VWS V14.00,2013-01-15 01:28:00,
2013-01-14 19:33:00,27.3,14.5,30.12,North,0,5.2,5.2,58,0.00,,---,0.00,VWS V14.00,2013-01-15 01:33:00,
2013-01-14 19:40:00,27.3,14.5,30.12,North,0,3.5,3.5,58,0.00,,---,0.00,VWS V14.00,2013-01-15 01:40:00,
2013-01-14 19:46:00,27.1,14.7,30.12,North,0,5.8,5.8,59,0.00,,---,0.00,VWS V14.00,2013-01-15 01:46:00,
2013-01-14 19:52:00,27.0,14.9,30.12,NNW,338,5.5,5.5,60,0.00,,---,0.00,VWS V14.00,2013-01-15 01:52:00,
2013-01-14 19:57:00,27.0,15.3,30.12,NNW,338,8.3,8.3,61,0.00,,---,0.00,VWS V14.00,2013-01-15 01:57:00,
2013-01-14 20:02:00,27.0,15.3,30.12,North,0,5.8,5.8,61,0.00,,---,0.00,VWS V14.00,2013-01-15 02:02:00,
2013-01-14 20:07:00,27.0,15.3,30.12,West,270,5.8,5.8,61,0.00,,---,0.00,VWS V14.00,2013-01-15 02:07:00,
2013-01-14 20:12:00,26.8,15.5,30.12,North,0,7.7,7.7,62,0.00,,---,0.00,VWS V14.00,2013-01-15 02:12:00,
2013-01-14 20:17:00,26.8,15.9,30.12,NNE,22,6.3,6.3,63,0.00,,---,0.00,VWS V14.00,2013-01-15 02:17:00,
2013-01-14 20:22:00,26.8,16.2,30.12,North,0,5.8,5.8,64,0.00,,---,0.00,VWS V14.00,2013-01-15 02:22:00,
2013-01-14 20:28:00,26.8,16.6,30.12,NNW,338,4.1,5.4,65,0.00,,---,0.00,VWS V14.00,2013-01-15 02:28:00,
2013-01-14 20:33:00,26.6,16.8,30.12,NNE,22,4.6,4.6,66,0.00,,---,0.00,VWS V14.00,2013-01-15 02:33:00,
2013-01-14 20:39:00,26.6,17.1,30.12,North,0,4.6,5.6,67,0.00,,---,0.00,VWS V14.00,2013-01-15 02:39:00,
2013-01-14 20:45:00,26.6,17.1,30.12,North,0,5.5,8.5,67,0.00,,---,0.00,VWS V14.00,2013-01-15 02:45:00,
2013-01-14 20:50:00,26.6,17.5,30.12,NNW,338,5.5,5.5,68,0.00,,---,0.00,VWS V14.00,2013-01-15 02:50:00,
2013-01-14 20:56:00,26.6,17.8,30.12,North,0,7.7,7.7,69,0.00,,---,0.00,VWS V14.00,2013-01-15 02:56:00,
2013-01-14 21:01:00,26.4,17.6,30.09,North,0,5.8,6.3,69,0.00,,---,0.00,VWS V14.00,2013-01-15 03:01:00,
2013-01-14 21:06:00,26.4,17.6,30.09,North,0,6.0,6.3,69,0.00,,---,0.00,VWS V14.00,2013-01-15 03:06:00,
2013-01-14 21:11:00,26.4,17.6,30.09,NNE,22,8.3,8.3,69,0.00,,---,0.00,VWS V14.00,2013-01-15 03:11:00,
2013-01-14 21:17:00,26.4,17.6,30.09,NNE,22,2.4,8.5,69,0.00,,---,0.00,VWS V14.00,2013-01-15 03:17:00,
2013-01-14 21:22:00,26.4,17.6,30.09,ESE,112,7.2,7.4,69,0.00,,---,0.00,VWS V14.00,2013-01-15 03:22:00,
2013-01-14 21:27:00,26.2,17.5,30.09,North,0,5.8,5.8,69,0.00,,---,0.00,VWS V14.00,2013-01-15 03:27:00,
2013-01-14 21:32:00,26.2,17.5,30.09,NNW,338,8.0,8.0,69,0.00,,---,0.00,VWS V14.00,2013-01-15 03:32:00,
2013-01-14 21:38:00,26.2,17.5,30.09,NNW,338,8.6,8.6,69,0.00,,---,0.00,VWS V14.00,2013-01-15 03:38:00,
2013-01-14 21:43:00,26.1,17.3,30.09,North,0,8.6,8.6,69,0.00,,---,0.00,VWS V14.00,2013-01-15 03:43:00,
2013-01-14 21:48:00,26.1,17.0,30.09,NNW,338,8.8,8.8,68,0.00,,---,0.00,VWS V14.00,2013-01-15 03:48:00,
2013-01-14 21:53:00,26.1,17.0,30.09,North,0,7.7,7.7,68,0.00,,---,0.00,VWS V14.00,2013-01-15 03:53:00,
2013-01-14 21:59:00,26.1,17.0,30.09,ENE,68,8.6,8.6,68,0.00,,---,0.00,VWS V14.00,2013-01-15 03:59:00,
2013-01-14 22:05:00,26.1,17.0,30.09,NW,315,7.7,7.8,68,0.00,,---,0.00,VWS V14.00,2013-01-15 04:05:00,
2013-01-14 22:10:00,26.1,16.6,30.09,WNW,292,7.2,7.2,67,0.00,,---,0.00,VWS V14.00,2013-01-15 04:10:00,
2013-01-14 22:15:00,26.1,16.6,30.09,North,0,11.6,11.6,67,0.00,,---,0.00,VWS V14.00,2013-01-15 04:15:00,
2013-01-14 22:20:00,26.1,16.6,30.09,North,0,4.4,5.8,67,0.00,,---,0.00,VWS V14.00,2013-01-15 04:20:00,
2013-01-14 22:25:00,25.9,16.5,30.09,NNW,338,5.5,5.5,67,0.00,,---,0.00,VWS V14.00,2013-01-15 04:25:00,
2013-01-14 22:30:00,25.9,16.5,30.09,NNW,338,6.0,6.0,67,0.00,,---,0.00,VWS V14.00,2013-01-15 04:30:00,
2013-01-14 22:35:00,25.9,16.5,30.12,SW,225,7.7,7.7,67,0.00,,---,0.00,VWS V14.00,2013-01-15 04:35:00,
2013-01-14 22:41:00,25.7,16.3,30.12,NNE,22,5.2,6.0,67,0.00,,---,0.00,VWS V14.00,2013-01-15 04:41:00,
2013-01-14 22:46:00,25.7,16.3,30.12,North,0,6.9,6.9,67,0.00,,---,0.00,VWS V14.00,2013-01-15 04:46:00,
2013-01-14 22:51:00,25.7,16.3,30.12,North,0,5.8,6.5,67,0.00,,---,0.00,VWS V14.00,2013-01-15 04:51:00,
2013-01-14 22:56:00,25.7,16.3,30.12,West,270,6.9,6.9,67,0.00,,---,0.00,VWS V14.00,2013-01-15 04:56:00,
2013-01-14 23:01:00,25.5,16.1,30.12,WNW,292,11.1,11.1,67,0.00,,---,0.00,VWS V14.00,2013-01-15 05:01:00,
2013-01-14 23:03:00,25.7,16.3,30.09,NNW,338,6.0,6.0,67,0.00,,---,0.00,VWS V14.00,2013-01-15 05:03:00,
2013-01-14 23:08:00,25.5,16.1,30.09,NNW,338,9.7,9.7,67,0.00,,---,0.00,VWS V14.00,2013-01-15 05:08:00,
2013-01-14 23:09:00,25.5,16.1,30.09,NNW,338,9.7,9.7,67,0.00,,---,0.00,VWS V14.00,2013-01-15 05:09:00,
2013-01-14 23:14:00,25.5,16.1,30.09,NW,315,9.1,9.1,67,0.00,,---,0.00,VWS V14.00,2013-01-15 05:14:00,
2013-01-14 23:19:00,25.5,16.4,30.12,North,0,4.4,4.9,68,0.00,,---,0.00,VWS V14.00,2013-01-15 05:19:00,
2013-01-14 23:24:00,25.3,16.3,30.12,NW,315,4.6,4.6,68,0.00,,---,0.00,VWS V14.00,2013-01-15 05:24:00,
2013-01-14 23:25:00,25.3,16.3,30.12,West,270,4.4,5.4,68,0.00,,---,0.00,VWS V14.00,2013-01-15 05:25:00,
2013-01-14 23:30:00,25.3,16.3,30.12,NNW,338,4.4,6.3,68,0.00,,---,0.00,VWS V14.00,2013-01-15 05:30:00,
2013-01-14 23:35:00,25.3,16.3,30.12,NNW,338,10.0,10.0,68,0.00,,---,0.00,VWS V14.00,2013-01-15 05:35:00,
2013-01-14 23:41:00,25.3,16.6,30.12,NNW,338,4.9,7.4,69,0.00,,---,0.00,VWS V14.00,2013-01-15 05:41:00,
2013-01-14 23:47:00,25.3,16.6,30.12,NNW,338,8.0,8.1,69,0.00,,---,0.00,VWS V14.00,2013-01-15 05:47:00,
2013-01-14 23:53:00,25.2,16.4,30.12,North,0,6.3,6.3,69,0.00,,---,0.00,VWS V14.00,2013-01-15 05:53:00,
2013-01-14 23:59:00,25.2,16.4,30.12,North,0,6.3,6.3,69,0.00,,---,0.00,VWS V14.00,2013-01-15 05:59:00,